Davenport, IA (52801)

10:47 PM CST on February 08, 2016 (GMT -0600)
Southeast Davenport | | Change Station
CLOSE
Current Station
Personal Weather Station
Location: Davenport, IA
Elevation: 659 ft
Nearby Weather Stations

Elev 659 ft 41.54 °N, 90.56 °W | Updated 32 seconds ago

Overcast
Overcast
16.7 °F
Feels Like 17 °F
N
2.0
Wind Variable Wind from North
Gusts 4.0 mph

Today
High -- | Low -- °F
--% Chance of Precip.
Yesterday
High -- | Low -- °F
Precip. -- in
Pressure 29.90 in
Visibility 10.0 miles
Clouds Mostly Cloudy 2300 ft
Overcast 4200 ft
Windchill 17 °F
Dew Point 7 °F
Humidity 64%
Rainfall 0.00 in
Snow Depth Not available.
7:06 AM 5:26 PM
New Moon, 0% visible
METAR KDVN 090352Z AUTO 31015KT 10SM -SN BKN023 OVC042 M08/M13 A2986 RMK AO2 SNB50 SLP124 P0000 T10831128
Pressure 29.90 in
Visibility 10.0 miles
Clouds Mostly Cloudy 2300 ft
Overcast 4200 ft
Windchill 17 °F
Dew Point 7 °F
Humidity 64%
Rainfall 0.00 in
Snow Depth Not available.
7:06 AM 5:26 PM
New Moon, 0% visible
METAR KDVN 090352Z AUTO 31015KT 10SM -SN BKN023 OVC042 M08/M13 A2986 RMK AO2 SNB50 SLP124 P0000 T10831128

10-Day Weather Forecast

Almanac

Astronomy

Feb. 08, 2016 Rise Set
Actual Time
Civil Twilight
Nautical Twilight
Astronomical Twilight
Moon
Length of Visible Light
Length of Day
Tomorrow will be .
, % of the Moon is Illuminated

Today's Extremes

State Highs State Lows

Community

WunderPhotos

Upload Photos

1,891,549 photos uploaded!

WunderBlog® & News

Nearby

Air Quality

  Air Quality AQ Index Pollutant
Not available.

Snow Depth

Station Depth Elevation

Earthquake Activity

City Distance Mag. Time & Date
Minimum magnitude displayed is 2.5.

Coastal Water Temperatures

Place Temperature

Stations

Nearby Weather Stations

Station Location Temp. Windchill Dew Point Humidity Wind Precip. Elev Updated Type
                   

Watches & Warnings

There are currently no watches in effect.